Time;durP1;ratioP1;P1;durP2;ratioP2;P2;SDS_P1;SDS_P2;PMS_P1;PMS_P2;Temp;Humidity;BMP_temperature;BMP_pressure;BME280_temperature;BME280_humidity;BME280_pressure;Samples;Min_cycle;Max_cycle;Signal;HPM_P1;HPM_P2
2021/04/11 00:00:31;;;;;;;9.57;6.35;;;10.70;99.90;;;;;;5053900;28;20028;-54
2021/04/11 00:02:58;;;;;;;9.55;6.28;;;10.70;99.90;;;;;;5052678;28;20060;-55
2021/04/11 00:05:27;;;;;;;12.98;6.25;;;10.70;99.90;;;;;;5055285;28;20044;-57
2021/04/11 00:07:53;;;;;;;10.80;5.65;;;10.80;99.90;;;;;;5049754;28;20060;-57
2021/04/11 00:10:31;;;;;;;11.05;6.88;;;10.80;99.90;;;;;;5059382;28;20025;-58
2021/04/11 00:12:57;;;;;;;12.52;6.38;;;10.80;99.90;;;;;;5051381;28;20041;-58
2021/04/11 00:15:23;;;;;;;11.38;6.82;;;10.70;99.90;;;;;;5051930;28;20045;-56
2021/04/11 00:17:49;;;;;;;9.60;6.57;;;10.70;99.90;;;;;;5053166;28;20029;-58
2021/04/11 00:20:16;;;;;;;9.70;6.47;;;10.80;99.90;;;;;;5055349;28;20040;-58
2021/04/11 00:22:41;;;;;;;10.18;6.47;;;10.80;99.90;;;;;;5049592;28;20469;-55
2021/04/11 00:25:09;;;;;;;9.10;6.00;;;10.80;99.90;;;;;;5053512;28;20052;-54
2021/04/11 00:27:35;;;;;;;13.70;6.20;;;10.80;99.90;;;;;;5052080;28;20112;-57
2021/04/11 00:30:00;;;;;;;9.98;5.95;;;10.80;99.90;;;;;;5049207;28;20462;-57
2021/04/11 00:32:26;;;;;;;8.15;5.63;;;10.80;99.90;;;;;;5050356;28;20510;-57
2021/04/11 00:34:52;;;;;;;10.55;6.68;;;10.80;99.90;;;;;;5058501;28;20082;-58
2021/04/11 00:37:17;;;;;;;8.07;5.80;;;10.80;99.90;;;;;;5055921;28;20039;-58
2021/04/11 00:39:43;;;;;;;9.05;7.35;;;10.90;99.90;;;;;;5057363;28;20017;-57
2021/04/11 00:42:18;;;;;;;8.35;5.50;;;10.90;99.90;;;;;;5056781;28;20024;-58
2021/04/11 00:44:44;;;;;;;10.10;6.78;;;10.90;99.90;;;;;;5050355;28;20025;-58
2021/04/11 00:47:10;;;;;;;8.95;6.57;;;10.90;99.90;;;;;;5055448;28;20024;-57
2021/04/11 00:49:40;;;;;;;10.25;6.05;;;10.90;99.90;;;;;;5052728;28;20025;-57
2021/04/11 00:52:08;;;;;;;10.85;6.13;;;11.00;99.90;;;;;;5052565;28;20029;-58
2021/04/11 00:54:34;;;;;;;9.18;6.07;;;10.90;99.90;;;;;;5052902;28;20094;-56
2021/04/11 00:57:01;;;;;;;9.95;6.00;;;10.90;99.90;;;;;;5059510;28;20020;-58
2021/04/11 00:59:28;;;;;;;12.05;5.65;;;10.90;99.90;;;;;;5052486;28;20025;-58
2021/04/11 01:01:53;;;;;;;8.70;5.55;;;11.00;99.90;;;;;;5052943;28;20032;-56
2021/04/11 01:04:20;;;;;;;8.82;5.80;;;11.00;99.90;;;;;;5053303;28;20029;-54
2021/04/11 01:06:57;;;;;;;10.18;5.55;;;11.00;99.90;;;;;;5058802;28;20324;-54
2021/04/11 01:09:33;;;;;;;6.82;5.28;;;11.00;99.90;;;;;;5047154;28;20100;-54
2021/04/11 01:12:01;;;;;;;7.57;5.57;;;11.00;99.90;;;;;;5034594;28;20115;-55
2021/04/11 01:14:32;;;;;;;6.28;5.45;;;10.90;99.90;;;;;;5056118;28;20111;-56
2021/04/11 01:16:58;;;;;;;7.50;4.60;;;11.00;99.90;;;;;;5057638;28;20033;-56
2021/04/11 01:19:32;;;;;;;10.65;6.78;;;10.90;99.90;;;;;;5050694;28;20017;-57
2021/04/11 01:22:32;;;;;;;7.18;4.50;;;10.90;99.90;;;;;;5052780;28;20118;-60
2021/04/11 01:25:03;;;;;;;10.35;6.43;;;10.90;99.90;;;;;;5052604;28;20017;-56
2021/04/11 01:27:34;;;;;;;11.18;5.72;;;10.90;99.90;;;;;;5052012;28;20356;-56
2021/04/11 01:30:10;;;;;;;8.70;6.20;;;10.90;99.90;;;;;;5053915;28;20029;-56
2021/04/11 01:32:36;;;;;;;9.43;6.25;;;10.90;99.90;;;;;;5051741;28;20031;-56
2021/04/11 01:35:04;;;;;;;6.97;5.70;;;10.80;99.90;;;;;;5051959;28;20029;-57
2021/04/11 01:37:30;;;;;;;7.38;5.80;;;10.80;99.90;;;;;;5048856;28;20029;-55
2021/04/11 01:39:56;;;;;;;7.90;5.80;;;10.80;99.90;;;;;;5058490;28;20086;-57
2021/04/11 01:42:22;;;;;;;10.23;7.55;;;10.70;99.90;;;;;;5050978;28;20471;-59
2021/04/11 01:44:49;;;;;;;9.02;6.80;;;10.70;99.90;;;;;;5050705;28;20029;-57
2021/04/11 01:47:17;;;;;;;10.98;7.68;;;10.70;99.90;;;;;;5051178;28;20473;-56
2021/04/11 01:49:44;;;;;;;9.73;7.07;;;10.60;99.90;;;;;;5058580;28;20036;-56
2021/04/11 01:52:17;;;;;;;13.10;7.43;;;10.60;99.90;;;;;;5053215;28;20020;-56
2021/04/11 01:54:43;;;;;;;11.45;7.97;;;10.60;99.90;;;;;;5055731;28;20387;-57
2021/04/11 01:57:18;;;;;;;9.02;7.95;;;10.60;99.90;;;;;;5053835;28;20025;-57
2021/04/11 01:59:44;;;;;;;11.77;8.65;;;10.60;99.90;;;;;;5055068;28;20027;-57
2021/04/11 02:02:13;;;;;;;12.73;8.73;;;10.50;99.90;;;;;;5056937;28;20024;-57
2021/04/11 02:04:39;;;;;;;11.55;8.45;;;10.50;99.90;;;;;;5057786;28;20047;-57
2021/04/11 02:07:08;;;;;;;11.23;8.45;;;10.50;99.90;;;;;;5051367;28;20104;-55
2021/04/11 02:09:37;;;;;;;10.90;8.98;;;10.50;99.90;;;;;;5049935;28;20479;-56
2021/04/11 02:12:06;;;;;;;12.68;8.52;;;10.40;99.90;;;;;;5054015;28;20132;-56
2021/04/11 02:14:32;;;;;;;10.70;8.40;;;10.40;99.90;;;;;;5026752;28;20029;-55
2021/04/11 02:16:58;;;;;;;11.35;8.73;;;10.40;99.90;;;;;;5049514;28;20025;-55
2021/04/11 02:19:26;;;;;;;14.50;8.88;;;10.40;99.90;;;;;;5051217;28;20392;-55
2021/04/11 02:22:19;;;;;;;14.05;8.40;;;10.40;99.90;;;;;;5058599;28;20028;-53
2021/04/11 02:24:45;;;;;;;8.68;7.78;;;10.40;99.90;;;;;;5052056;28;20029;-56
2021/04/11 02:27:14;;;;;;;13.07;9.13;;;10.40;99.90;;;;;;5058715;28;20048;-53
2021/04/11 02:29:41;;;;;;;10.55;8.52;;;10.40;99.90;;;;;;5051036;28;20029;-53
2021/04/11 02:32:07;;;;;;;10.95;9.07;;;10.30;99.90;;;;;;5057510;28;20027;-57
2021/04/11 02:34:34;;;;;;;16.52;9.57;;;10.30;99.90;;;;;;5050858;28;20604;-57
2021/04/11 02:37:03;;;;;;;13.10;9.75;;;10.30;99.90;;;;;;5051582;28;20022;-57
2021/04/11 02:39:32;;;;;;;13.02;10.02;;;10.20;99.90;;;;;;5047144;28;20100;-58
2021/04/11 02:42:03;;;;;;;12.73;10.55;;;10.20;99.90;;;;;;5050279;28;20032;-57
2021/04/11 02:44:33;;;;;;;14.80;10.07;;;10.20;99.90;;;;;;5050765;28;20029;-57
2021/04/11 02:46:58;;;;;;;15.73;10.52;;;10.20;99.90;;;;;;5052677;28;20379;-57
2021/04/11 02:49:24;;;;;;;18.35;11.32;;;10.20;99.90;;;;;;5051737;28;20040;-57
2021/04/11 02:51:53;;;;;;;15.63;10.77;;;10.30;99.90;;;;;;5050728;28;20471;-57
2021/04/11 02:54:21;;;;;;;15.15;11.15;;;10.20;99.90;;;;;;5055193;28;20020;-57
2021/04/11 02:56:48;;;;;;;12.68;10.45;;;10.20;99.90;;;;;;5053864;28;20074;-56
2021/04/11 02:59:15;;;;;;;13.82;9.80;;;10.20;99.90;;;;;;5044140;28;20029;-57
2021/04/11 03:01:44;;;;;;;16.63;10.70;;;10.20;99.90;;;;;;5058746;28;20021;-57
2021/04/11 03:04:19;;;;;;;11.52;9.48;;;10.30;99.90;;;;;;5051042;28;20020;-57
2021/04/11 03:07:09;;;;;;;;;;;10.30;99.90;;;;;;5049822;28;20028;-57
2021/04/11 03:09:48;;;;;;;14.45;10.05;;;10.30;99.90;;;;;;5052127;28;19905;-57
2021/04/11 03:12:16;;;;;;;25.65;12.63;;;10.40;99.90;;;;;;5051424;28;20037;-57
2021/04/11 03:14:43;;;;;;;14.00;8.80;;;10.40;99.90;;;;;;5040228;28;20391;-57
2021/04/11 03:17:12;;;;;;;14.80;9.80;;;10.40;99.90;;;;;;5050759;28;20171;-58
2021/04/11 03:19:49;;;;;;;17.92;11.32;;;10.40;99.90;;;;;;5060225;28;20024;-58
2021/04/11 03:22:18;;;;;;;17.70;11.68;;;10.30;99.90;;;;;;5050382;28;20028;-56
2021/04/11 03:24:48;;;;;;;17.25;11.77;;;10.20;99.90;;;;;;5060091;28;20029;-58
2021/04/11 03:27:23;;;;;;;22.40;14.27;;;10.10;99.90;;;;;;5048681;28;20044;-57
2021/04/11 03:29:53;;;;;;;23.45;13.88;;;10.00;99.90;;;;;;5060698;28;20054;-57
2021/04/11 03:32:30;;;;;;;24.65;15.85;;;9.90;99.90;;;;;;5052500;28;20018;-56
2021/04/11 03:34:59;;;;;;;25.75;16.20;;;9.70;99.90;;;;;;5038348;28;20037;-57
2021/04/11 03:37:26;;;;;;;24.58;16.40;;;9.60;99.90;;;;;;5054719;28;20059;-57
2021/04/11 03:39:52;;;;;;;24.02;16.60;;;9.60;99.90;;;;;;5059949;28;20012;-56
2021/04/11 03:42:21;;;;;;;23.17;15.48;;;9.50;99.90;;;;;;5049823;28;20506;-57
2021/04/11 03:44:48;;;;;;;24.83;15.95;;;9.30;99.90;;;;;;5050373;28;20474;-56
2021/04/11 03:47:47;;;;;;;22.15;15.00;;;9.20;99.90;;;;;;5049347;28;20040;-55
2021/04/11 03:50:19;;;;;;;20.33;14.32;;;9.20;99.90;;;;;;5039479;28;20036;-55
2021/04/11 03:52:54;;;;;;;22.70;14.88;;;9.10;99.90;;;;;;5052779;28;20048;-58
2021/04/11 03:55:23;;;;;;;22.75;14.95;;;9.10;99.90;;;;;;5049294;28;20029;-56
2021/04/11 03:57:54;;;;;;;24.80;16.05;;;9.00;99.90;;;;;;5050829;28;20428;-57
2021/04/11 04:00:27;;;;;;;29.58;18.95;;;9.00;99.90;;;;;;5053379;28;20017;-58
2021/04/11 04:02:57;;;;;;;33.33;20.15;;;9.00;99.90;;;;;;5048939;28;20029;-58
2021/04/11 04:05:26;;;;;;;31.55;19.50;;;8.90;99.90;;;;;;5050161;28;20041;-58
2021/04/11 04:07:57;;;;;;;41.83;24.65;;;8.90;99.90;;;;;;5055053;28;20029;-58
2021/04/11 04:10:28;;;;;;;49.10;27.33;;;8.80;99.90;;;;;;5056203;28;20032;-58
2021/04/11 04:13:02;;;;;;;46.47;27.63;;;8.80;99.90;;;;;;5053087;28;20033;-57
2021/04/11 04:15:44;;;;;;;51.88;28.98;;;8.80;99.90;;;;;;5047365;28;20028;-55
2021/04/11 04:18:30;;;;;;;48.85;26.88;;;8.70;99.90;;;;;;5050944;28;20024;-57
2021/04/11 04:21:25;;;;;;;48.00;25.75;;;8.50;99.90;;;;;;5062596;28;20033;-57
2021/04/11 04:23:59;;;;;;;43.03;24.73;;;8.40;99.90;;;;;;5058124;28;20033;-58
2021/04/11 04:26:40;;;;;;;35.90;20.13;;;8.30;99.90;;;;;;5053672;28;20032;-59
2021/04/11 04:29:23;;;;;;;26.73;16.90;;;8.20;99.90;;;;;;5051585;28;20025;-55
2021/04/11 04:32:10;;;;;;;23.52;15.75;;;8.10;99.90;;;;;;5059015;28;20017;-57
2021/04/11 04:35:13;;;;;;;22.40;14.18;;;8.00;99.90;;;;;;5052817;28;20028;-58
2021/04/11 04:38:14;;;;;;;21.90;13.02;;;8.00;99.90;;;;;;5053070;28;20020;-57
2021/04/11 04:40:50;;;;;;;22.88;13.25;;;8.00;99.90;;;;;;5002840;28;20018;-56
2021/04/11 04:43:30;;;;;;;19.08;11.93;;;7.90;99.90;;;;;;5033130;28;20029;-58
2021/04/11 04:45:58;;;;;;;18.35;12.27;;;7.90;99.90;;;;;;5055637;28;20453;-56
2021/04/11 04:48:29;;;;;;;17.08;10.98;;;7.80;99.90;;;;;;5055413;28;20120;-58
2021/04/11 04:51:14;;;;;;;14.45;9.68;;;7.90;99.90;;;;;;5051299;28;20036;-58
2021/04/11 04:53:50;;;;;;;14.80;10.10;;;7.80;99.90;;;;;;5049720;28;20024;-58
2021/04/11 04:56:25;;;;;;;15.60;10.75;;;7.80;99.90;;;;;;5055047;28;20036;-57
2021/04/11 04:59:07;;;;;;;22.80;13.93;;;7.60;99.90;;;;;;5048583;28;20061;-57
2021/04/11 05:01:41;;;;;;;21.00;13.45;;;7.40;99.90;;;;;;5052983;28;20029;-58
2021/04/11 05:04:14;;;;;;;21.20;13.48;;;7.20;99.90;;;;;;5052204;28;20053;-57
2021/04/11 05:06:43;;;;;;;22.10;14.07;;;7.10;99.90;;;;;;5047866;28;20075;-58
2021/04/11 05:09:21;;;;;;;21.73;13.35;;;7.10;99.90;;;;;;5056867;28;20059;-55
2021/04/11 05:11:53;;;;;;;20.30;13.95;;;7.00;99.90;;;;;;5054008;28;20510;-58
2021/04/11 05:14:30;;;;;;;21.05;13.32;;;7.00;99.90;;;;;;5051671;28;20376;-56
2021/04/11 05:17:20;;;;;;;18.58;11.10;;;6.90;99.90;;;;;;5050953;28;20533;-58
2021/04/11 05:19:50;;;;;;;21.20;12.85;;;6.80;99.90;;;;;;5052323;28;20391;-57
2021/04/11 05:22:25;;;;;;;19.15;11.38;;;6.80;99.90;;;;;;5056355;28;20033;-58
2021/04/11 05:25:22;;;;;;;32.30;16.77;;;6.80;99.90;;;;;;5052957;28;20112;-57
2021/04/11 05:27:53;;;;;;;49.85;21.70;;;6.80;99.90;;;;;;5031320;28;20090;-53
2021/04/11 05:30:21;;;;;;;40.22;19.92;;;6.80;99.90;;;;;;5055264;28;20052;-58
2021/04/11 05:32:49;;;;;;;35.17;18.17;;;6.70;99.90;;;;;;5051652;28;20104;-58
2021/04/11 05:35:14;;;;;;;26.27;14.13;;;6.70;99.90;;;;;;5052122;28;20100;-56
2021/04/11 05:38:01;;;;;;;22.00;12.85;;;6.60;99.90;;;;;;5051644;28;20498;-59
2021/04/11 05:40:32;;;;;;;17.27;10.73;;;6.60;99.90;;;;;;5052388;28;20075;-56
2021/04/11 05:43:06;;;;;;;16.30;9.88;;;6.50;99.90;;;;;;5055954;28;20024;-59
2021/04/11 05:45:37;;;;;;;19.48;11.15;;;6.50;99.90;;;;;;5052215;28;20478;-56
2021/04/11 05:48:18;;;;;;;26.70;13.50;;;6.40;99.90;;;;;;5046095;28;20036;-56
2021/04/11 05:51:01;;;;;;;29.45;16.58;;;6.40;99.90;;;;;;5047087;28;20028;-57
2021/04/11 05:53:33;;;;;;;31.92;17.58;;;6.30;99.90;;;;;;5051778;28;20033;-56
2021/04/11 05:56:02;;;;;;;28.20;14.88;;;6.30;99.90;;;;;;5046920;28;20040;-58
2021/04/11 05:58:35;;;;;;;43.47;20.33;;;6.20;99.90;;;;;;5050320;28;20025;-55
2021/04/11 06:01:08;;;;;;;39.60;20.05;;;6.10;99.90;;;;;;5062275;28;20028;-59
2021/04/11 06:03:36;;;;;;;44.05;21.95;;;6.00;99.90;;;;;;5051197;28;20111;-57
2021/04/11 06:06:21;;;;;;;47.58;22.33;;;5.90;99.90;;;;;;5052235;28;20032;-58
2021/04/11 06:09:01;;;;;;;48.60;23.20;;;5.90;99.90;;;;;;5039409;28;20032;-57
2021/04/11 06:11:34;;;;;;;49.15;22.13;;;5.80;99.90;;;;;;5051723;28;20033;-59
2021/04/11 06:14:27;;;;;;;45.40;21.38;;;5.80;99.90;;;;;;5050365;28;20457;-58
2021/04/11 06:16:53;;;;;;;48.72;21.15;;;5.80;99.90;;;;;;5057263;28;20124;-58
2021/04/11 06:19:20;;;;;;;62.03;26.27;;;5.80;99.90;;;;;;5057267;28;20023;-54
2021/04/11 06:22:02;;;;;;;51.38;22.65;;;5.80;99.90;;;;;;5061723;28;20025;-54
2021/04/11 06:24:54;;;;;;;39.15;18.00;;;5.70;99.90;;;;;;5043985;28;20032;-58
2021/04/11 06:27:39;;;;;;;45.22;20.23;;;5.70;99.90;;;;;;5049538;28;20049;-56
2021/04/11 06:30:13;;;;;;;64.82;26.40;;;5.70;99.90;;;;;;5052015;28;20032;-56
2021/04/11 06:32:45;;;;;;;;;;;5.60;99.90;;;;;;5051031;28;20039;-59
2021/04/11 06:35:13;;;;;;;47.28;20.77;;;5.60;99.90;;;;;;5044400;28;19920;-59
2021/04/11 06:37:43;;;;;;;59.38;24.13;;;5.50;99.90;;;;;;5044619;28;20028;-57
2021/04/11 06:40:31;;;;;;;54.28;24.33;;;5.40;99.90;;;;;;5045649;28;20024;-57
2021/04/11 06:43:16;;;;;;;55.35;23.48;;;5.50;99.90;;;;;;5050475;28;20025;-58
2021/04/11 06:45:55;;;;;;;64.50;27.92;;;5.50;99.90;;;;;;5050756;28;20037;-58
2021/04/11 06:48:48;;;;;;;61.58;26.73;;;5.50;99.90;;;;;;5051319;28;20036;-58
2021/04/11 06:51:25;;;;;;;66.75;29.35;;;5.50;99.90;;;;;;5049689;28;20040;-55
2021/04/11 06:54:19;;;;;;;72.15;30.42;;;5.40;99.90;;;;;;5050158;28;20036;-59
2021/04/11 06:57:41;;;;;;;72.38;28.95;;;5.40;99.90;;;;;;5050850;28;20139;-58
2021/04/11 07:00:39;;;;;;;64.43;26.45;;;5.30;99.90;;;;;;4964160;28;20101;-57
2021/04/11 07:03:42;;;;;;;64.55;26.42;;;5.30;99.90;;;;;;5044610;28;20025;-58
2021/04/11 07:06:45;;;;;;;53.22;24.10;;;5.30;99.90;;;;;;5042633;28;20028;-58
2021/04/11 07:09:47;;;;;;;56.92;24.85;;;5.30;99.90;;;;;;5045011;28;20149;-59
2021/04/11 07:12:43;;;;;;;54.35;23.50;;;5.30;99.90;;;;;;5029123;28;20045;-57
2021/04/11 07:15:33;;;;;;;53.08;23.45;;;5.30;99.90;;;;;;5040965;28;20699;-58
2021/04/11 07:18:16;;;;;;;50.90;23.90;;;5.30;99.90;;;;;;5040016;28;20435;-59
2021/04/11 07:21:09;;;;;;;52.60;24.50;;;5.20;99.90;;;;;;5040814;28;20017;-57
2021/04/11 07:24:11;;;;;;;46.78;21.45;;;5.20;99.90;;;;;;5037573;28;20491;-59
2021/04/11 07:26:55;;;;;;;48.17;20.38;;;5.20;99.90;;;;;;5040423;28;20034;-59
2021/04/11 07:29:32;;;;;;;42.97;20.13;;;5.20;99.90;;;;;;5039176;28;20025;-59
2021/04/11 07:32:35;;;;;;;40.95;18.38;;;5.20;99.90;;;;;;5038737;28;20029;-59
2021/04/11 07:35:35;;;;;;;34.25;16.58;;;5.20;99.90;;;;;;5039590;28;20491;-58
2021/04/11 07:38:14;;;;;;;34.33;16.02;;;5.30;99.90;;;;;;5039817;28;20503;-59
2021/04/11 07:41:14;;;;;;;25.05;13.45;;;5.20;99.90;;;;;;5040859;28;20437;-57
2021/04/11 07:43:50;;;;;;;19.20;10.07;;;5.20;99.90;;;;;;5036560;28;20033;-59
2021/04/11 07:46:42;;;;;;;17.65;9.88;;;5.20;99.90;;;;;;5041492;28;20117;-59
2021/04/11 07:49:32;;;;;;;15.60;9.00;;;5.20;99.90;;;;;;5039605;28;20201;-59
2021/04/11 07:52:08;;;;;;;16.92;8.80;;;5.20;99.90;;;;;;5040466;28;20547;-59
2021/04/11 07:54:44;;;;;;;12.05;6.57;;;5.20;99.90;;;;;;5036891;28;20498;-59
2021/04/11 07:57:16;;;;;;;10.10;6.63;;;5.20;99.90;;;;;;5038664;28;20614;-59
2021/04/11 08:00:10;;;;;;;9.95;6.35;;;5.10;99.90;;;;;;5040890;28;20022;-58
2021/04/11 08:03:15;;;;;;;11.48;6.88;;;5.10;99.90;;;;;;5039435;28;20028;-57
2021/04/11 08:06:07;;;;;;;10.40;6.43;;;5.10;99.90;;;;;;5039386;28;20029;-59
2021/04/11 08:09:02;;;;;;;10.40;6.93;;;5.10;99.90;;;;;;5042152;28;20488;-57
2021/04/11 08:12:00;;;;;;;14.45;8.25;;;5.10;99.90;;;;;;5042659;28;20525;-57
2021/04/11 08:14:59;;;;;;;15.88;8.55;;;5.20;99.90;;;;;;4984646;28;20034;-59
2021/04/11 08:17:37;;;;;;;15.32;8.07;;;5.10;99.90;;;;;;5039622;28;20104;-58
2021/04/11 08:20:28;;;;;;;16.88;8.80;;;5.10;99.90;;;;;;5036482;28;20025;-58
2021/04/11 08:23:09;;;;;;;15.00;9.07;;;5.10;99.90;;;;;;5036898;28;20108;-58
2021/04/11 08:25:42;;;;;;;16.83;8.30;;;5.10;99.90;;;;;;5040942;28;20041;-57
2021/04/11 08:28:19;;;;;;;13.20;8.15;;;5.10;99.90;;;;;;5040800;28;20061;-57
2021/04/11 08:31:07;;;;;;;15.10;8.05;;;5.10;99.90;;;;;;5040723;28;20036;-57
2021/04/11 08:33:32;;;;;;;13.90;8.35;;;5.20;99.90;;;;;;5040074;28;20128;-59
2021/04/11 08:36:19;;;;;;;15.13;8.55;;;5.00;99.90;;;;;;5047839;28;20115;-54
2021/04/11 08:39:23;;;;;;;14.15;8.10;;;5.00;99.90;;;;;;5046703;28;20014;-55
2021/04/11 08:42:26;;;;;;;14.70;8.40;;;5.00;99.90;;;;;;5049628;28;20021;-58
2021/04/11 08:45:29;;;;;;;17.02;9.65;;;5.00;99.90;;;;;;5052303;28;20029;-56
2021/04/11 08:48:17;;;;;;;17.77;8.80;;;4.90;99.90;;;;;;5003683;28;20073;-57
2021/04/11 08:50:54;;;;;;;13.43;8.32;;;5.00;99.90;;;;;;5045554;28;20109;-55
2021/04/11 08:53:31;;;;;;;13.35;8.13;;;4.90;99.90;;;;;;5052090;28;20029;-56
2021/04/11 08:56:25;;;;;;;14.88;8.07;;;4.90;99.90;;;;;;5052919;28;20113;-57
2021/04/11 08:59:01;;;;;;;11.38;6.75;;;4.80;99.90;;;;;;5052672;28;20037;-58
2021/04/11 09:01:52;;;;;;;12.38;7.55;;;4.80;99.90;;;;;;5048962;28;20461;-57
2021/04/11 09:04:50;;;;;;;14.63;8.45;;;4.90;99.90;;;;;;5037776;28;20483;-57
2021/04/11 09:07:47;;;;;;;13.35;8.30;;;4.90;99.90;;;;;;5047652;28;20063;-58
2021/04/11 09:10:31;;;;;;;15.35;8.50;;;4.90;99.90;;;;;;5051570;28;20037;-55
2021/04/11 09:13:18;;;;;;;11.85;7.25;;;4.80;99.90;;;;;;5054170;28;20029;-58
2021/04/11 09:15:55;;;;;;;15.57;8.57;;;4.70;99.90;;;;;;5052316;28;20530;-57
2021/04/11 09:19:07;;;;;;;10.77;5.60;;;4.80;99.90;;;;;;5050631;28;20022;-58
2021/04/11 09:22:06;;;;;;;7.40;4.75;;;4.70;99.90;;;;;;5021011;28;20025;-59
2021/04/11 09:24:52;;;;;;;9.40;5.95;;;4.60;99.90;;;;;;5052554;28;20037;-56
2021/04/11 09:27:23;;;;;;;8.30;5.28;;;4.60;99.90;;;;;;5045328;28;20088;-58
2021/04/11 09:30:01;;;;;;;9.60;6.53;;;4.60;99.90;;;;;;5053377;28;20035;-57
2021/04/11 09:32:55;;;;;;;8.80;5.63;;;4.60;99.90;;;;;;5056273;28;20384;-55
2021/04/11 09:35:40;;;;;;;6.82;5.18;;;4.50;99.90;;;;;;5040410;28;20051;-58
2021/04/11 09:38:27;;;;;;;11.05;6.97;;;4.50;99.90;;;;;;5047950;28;20394;-59
2021/04/11 09:41:20;;;;;;;9.05;6.80;;;4.50;99.90;;;;;;5053595;28;20025;-58
2021/04/11 09:44:04;;;;;;;8.93;6.05;;;4.50;99.90;;;;;;5040563;28;20037;-58
2021/04/11 09:47:00;;;;;;;10.68;5.78;;;4.50;99.90;;;;;;5051280;28;20021;-58
2021/04/11 09:49:44;;;;;;;9.80;4.80;;;4.60;99.90;;;;;;5048264;28;20041;-59
2021/04/11 09:52:35;;;;;;;6.47;4.82;;;4.60;99.90;;;;;;5043289;28;20048;-58
2021/04/11 09:55:12;;;;;;;5.80;4.18;;;4.60;99.90;;;;;;5042831;28;20086;-58
2021/04/11 09:57:52;;;;;;;6.18;4.60;;;4.60;99.90;;;;;;5048577;28;20389;-57
2021/04/11 10:00:32;;;;;;;8.07;4.85;;;4.60;99.90;;;;;;5045482;28;20450;-58
2021/04/11 10:03:24;;;;;;;7.82;4.50;;;4.70;99.90;;;;;;5049259;28;20075;-54
2021/04/11 10:05:57;;;;;;;6.25;4.80;;;4.70;99.90;;;;;;5036022;28;20044;-54
2021/04/11 10:08:35;;;;;;;10.50;4.97;;;4.70;99.90;;;;;;5043737;28;20022;-60
2021/04/11 10:11:06;;;;;;;6.28;4.55;;;4.70;99.90;;;;;;5025522;28;20099;-54
2021/04/11 10:13:50;;;;;;;5.90;4.28;;;4.70;99.90;;;;;;5045743;28;20026;-54
2021/04/11 10:16:44;;;;;;;8.30;4.55;;;4.80;99.90;;;;;;5044459;28;20083;-57
2021/04/11 10:19:45;;;;;;;6.47;4.32;;;4.70;99.90;;;;;;5036310;28;20082;-56
2021/04/11 10:22:26;;;;;;;5.40;4.07;;;4.70;99.90;;;;;;5014594;28;20061;-55
2021/04/11 10:25:19;;;;;;;5.07;4.00;;;4.70;99.90;;;;;;5058407;28;20055;-55
2021/04/11 10:27:54;;;;;;;4.40;3.45;;;4.60;99.90;;;;;;5043487;28;20025;-54
2021/04/11 10:30:20;;;;;;;4.68;4.10;;;4.70;99.90;;;;;;5054039;28;20029;-57
2021/04/11 10:33:10;;;;;;;4.35;3.45;;;4.70;99.90;;;;;;5055417;28;20029;-55
2021/04/11 10:35:41;;;;;;;4.68;3.80;;;4.70;99.90;;;;;;5049817;28;20488;-56
2021/04/11 10:38:39;;;;;;;3.63;3.05;;;4.70;99.90;;;;;;5042298;28;20023;-56
2021/04/11 10:41:33;;;;;;;3.72;2.92;;;4.60;99.90;;;;;;5042865;28;20033;-54
2021/04/11 10:44:53;;;;;;;3.50;3.20;;;4.60;99.90;;;;;;5059767;28;20029;-56
2021/04/11 10:47:43;;;;;;;3.72;3.10;;;4.50;99.90;;;;;;4959593;28;20429;-55
2021/04/11 10:50:34;;;;;;;4.18;2.97;;;4.50;99.90;;;;;;5040730;28;20037;-54
2021/04/11 10:53:31;;;;;;;3.90;3.47;;;4.50;99.90;;;;;;5016721;28;20052;-55
2021/04/11 10:56:18;;;;;;;5.78;4.35;;;4.60;99.90;;;;;;5042570;28;20523;-54
2021/04/11 10:59:05;;;;;;;4.47;3.83;;;4.60;99.90;;;;;;5052639;28;20032;-54
2021/04/11 11:01:39;;;;;;;5.45;3.58;;;4.70;99.90;;;;;;5052097;28;20541;-56
2021/04/11 11:04:46;;;;;;;6.22;3.45;;;4.70;99.90;;;;;;5038435;28;20128;-53
2021/04/11 11:07:38;;;;;;;3.10;2.75;;;4.70;99.90;;;;;;5031412;28;20030;-53
2021/04/11 11:10:41;;;;;;;4.28;3.67;;;4.70;99.90;;;;;;5047498;28;20501;-54
2021/04/11 11:13:32;;;;;;;5.80;3.40;;;4.80;99.90;;;;;;5050200;28;20049;-56
2021/04/11 11:16:14;;;;;;;4.20;3.65;;;4.80;99.90;;;;;;5044169;28;20040;-58
2021/04/11 11:19:06;;;;;;;4.82;3.92;;;4.80;99.90;;;;;;5039335;28;20156;-59
2021/04/11 11:22:23;;;;;;;4.28;3.85;;;4.70;99.90;;;;;;5045422;28;20387;-57
2021/04/11 11:25:23;;;;;;;6.47;3.97;;;4.80;99.90;;;;;;5026083;28;20051;-57
2021/04/11 11:28:02;;;;;;;4.93;3.80;;;4.90;99.90;;;;;;5037268;28;20052;-57
2021/04/11 11:31:06;;;;;;;5.07;3.58;;;4.90;99.90;;;;;;5037154;28;20022;-58
2021/04/11 11:33:58;;;;;;;4.23;3.80;;;4.90;99.90;;;;;;5040797;28;20087;-55
2021/04/11 11:36:42;;;;;;;8.23;6.38;;;4.70;99.90;;;;;;5041528;28;20525;-57
2021/04/11 11:39:31;;;;;;;10.77;7.60;;;4.70;99.90;;;;;;5043845;28;20025;-59
2021/04/11 11:42:38;;;;;;;12.88;9.05;;;4.70;99.90;;;;;;5043642;28;20113;-56
2021/04/11 11:45:22;;;;;;;14.02;9.68;;;4.60;99.90;;;;;;5045145;28;20037;-58
2021/04/11 11:48:11;;;;;;;16.00;9.48;;;4.70;99.90;;;;;;5045014;28;20069;-58
2021/04/11 11:50:53;;;;;;;16.95;10.93;;;4.80;99.90;;;;;;5045394;28;20033;-58
2021/04/11 11:53:32;;;;;;;15.88;10.75;;;4.80;99.90;;;;;;5046133;28;20025;-59
2021/04/11 11:56:24;;;;;;;14.32;9.90;;;4.80;99.90;;;;;;5031839;28;20033;-59
2021/04/11 11:59:19;;;;;;;11.20;6.97;;;4.80;99.90;;;;;;5046148;28;20518;-57
2021/04/11 12:02:09;;;;;;;6.30;4.80;;;4.80;99.90;;;;;;5042389;28;20049;-57
2021/04/11 12:04:41;;;;;;;5.07;4.40;;;4.70;99.90;;;;;;5039850;28;20025;-57
2021/04/11 12:07:30;;;;;;;4.93;4.38;;;4.60;99.90;;;;;;5044894;28;20036;-58
2021/04/11 12:10:11;;;;;;;5.78;4.85;;;4.70;99.90;;;;;;5046775;28;20045;-59
2021/04/11 12:12:45;;;;;;;7.18;4.38;;;4.70;99.90;;;;;;5038439;28;20445;-57
2021/04/11 12:15:28;;;;;;;8.20;3.97;;;4.70;99.90;;;;;;5045911;28;20103;-57
2021/04/11 12:18:05;;;;;;;5.82;3.90;;;4.70;99.90;;;;;;5050528;28;20044;-58
2021/04/11 12:20:34;;;;;;;4.45;3.25;;;4.80;99.90;;;;;;5052113;28;20025;-54
2021/04/11 12:23:12;;;;;;;4.05;2.95;;;4.70;99.90;;;;;;5044820;28;20033;-55
2021/04/11 12:25:38;;;;;;;3.72;2.70;;;4.70;99.90;;;;;;5048139;28;20021;-58
2021/04/11 12:28:31;;;;;;;3.92;2.70;;;4.70;99.90;;;;;;5046579;28;20051;-56
2021/04/11 12:31:08;;;;;;;3.80;2.97;;;4.70;99.90;;;;;;5052460;28;20048;-55
2021/04/11 12:33:41;;;;;;;4.63;4.07;;;4.70;99.90;;;;;;5048779;28;20029;-59
2021/04/11 12:36:10;;;;;;;8.52;4.38;;;4.70;99.90;;;;;;5045637;28;20037;-58
2021/04/11 12:38:38;;;;;;;10.52;5.95;;;4.70;99.90;;;;;;5053711;28;20025;-57
2021/04/11 12:41:17;;;;;;;12.73;9.23;;;4.80;99.90;;;;;;5050270;28;20021;-57
2021/04/11 12:44:15;;;;;;;12.98;9.48;;;4.80;99.90;;;;;;5054063;28;20460;-58
2021/04/11 12:47:08;;;;;;;15.18;10.52;;;4.80;99.90;;;;;;5032396;28;20337;-58
2021/04/11 12:49:55;;;;;;;20.98;14.13;;;5.00;99.90;;;;;;5049118;28;20025;-59
2021/04/11 12:52:47;;;;;;;21.90;14.63;;;5.10;99.90;;;;;;5057389;28;20067;-60
2021/04/11 12:55:26;;;;;;;21.30;14.30;;;5.10;99.90;;;;;;5041269;28;20044;-59
2021/04/11 12:58:03;;;;;;;24.33;16.33;;;5.10;99.90;;;;;;5053288;28;20160;-59
2021/04/11 13:00:40;;;;;;;24.05;15.88;;;5.10;99.90;;;;;;5043425;28;20025;-57
2021/04/11 13:03:28;;;;;;;28.67;17.30;;;5.20;99.90;;;;;;5054353;28;20498;-55
2021/04/11 13:06:18;;;;;;;27.50;18.05;;;5.20;99.90;;;;;;5055990;28;20380;-53
2021/04/11 13:08:58;;;;;;;26.92;17.27;;;5.10;99.90;;;;;;5048387;28;20657;-58
2021/04/11 13:11:37;;;;;;;26.55;18.40;;;5.00;99.90;;;;;;5050301;28;20148;-56
2021/04/11 13:14:12;;;;;;;29.00;20.67;;;5.00;99.90;;;;;;5049658;28;20021;-56
2021/04/11 13:17:04;;;;;;;26.70;18.95;;;4.90;99.90;;;;;;5049480;28;20466;-60
2021/04/11 13:19:42;;;;;;;25.35;17.20;;;5.00;99.90;;;;;;5046593;28;20017;-58
2021/04/11 13:22:25;;;;;;;28.17;18.38;;;5.00;99.90;;;;;;5050796;28;20107;-58
2021/04/11 13:25:02;;;;;;;30.17;20.02;;;5.00;99.90;;;;;;5056364;28;20032;-59
2021/04/11 13:27:55;;;;;;;32.22;19.85;;;5.00;99.90;;;;;;5053346;28;20029;-57
2021/04/11 13:30:31;;;;;;;35.10;19.92;;;4.90;99.90;;;;;;5041297;28;20428;-56
2021/04/11 13:33:05;;;;;;;30.13;18.30;;;5.00;99.90;;;;;;5048521;28;20119;-57
2021/04/11 13:35:45;;;;;;;31.40;19.40;;;5.00;99.90;;;;;;5046740;28;20029;-56
2021/04/11 13:38:41;;;;;;;31.85;20.35;;;5.10;99.90;;;;;;5044468;28;20029;-54
2021/04/11 13:41:29;;;;;;;33.70;19.38;;;5.20;99.90;;;;;;5044846;28;20102;-58
2021/04/11 13:44:12;;;;;;;31.20;20.50;;;5.20;99.90;;;;;;5043293;28;20025;-60
2021/04/11 13:46:42;;;;;;;32.50;20.88;;;5.30;99.90;;;;;;5041665;28;20027;-58